sensor_id;sensor_type;location;lat;lon;timestamp;P1;durP1;ratioP1;P2;durP2;ratioP2
23242;SDS011;11790;49.578;11.214;2023-04-03T00:02:44;5.00;;;3.23;;
23242;SDS011;11790;49.578;11.214;2023-04-03T00:07:44;4.10;;;2.90;;
23242;SDS011;11790;49.578;11.214;2023-04-03T00:12:44;5.03;;;2.83;;
23242;SDS011;11790;49.578;11.214;2023-04-03T00:17:45;7.07;;;3.50;;
23242;SDS011;11790;49.578;11.214;2023-04-03T00:22:45;5.95;;;3.25;;
23242;SDS011;11790;49.578;11.214;2023-04-03T00:27:45;5.80;;;3.45;;
23242;SDS011;11790;49.578;11.214;2023-04-03T00:32:47;4.43;;;3.10;;
23242;SDS011;11790;49.578;11.214;2023-04-03T00:37:47;6.35;;;3.60;;
23242;SDS011;11790;49.578;11.214;2023-04-03T00:42:48;6.03;;;3.80;;
23242;SDS011;11790;49.578;11.214;2023-04-03T00:47:50;7.78;;;3.95;;
23242;SDS011;11790;49.578;11.214;2023-04-03T00:52:51;5.30;;;3.63;;
23242;SDS011;11790;49.578;11.214;2023-04-03T00:57:52;6.32;;;3.78;;
23242;SDS011;11790;49.578;11.214;2023-04-03T01:02:53;5.82;;;4.05;;
23242;SDS011;11790;49.578;11.214;2023-04-03T01:07:53;9.90;;;3.80;;
23242;SDS011;11790;49.578;11.214;2023-04-03T01:12:53;5.70;;;3.58;;
23242;SDS011;11790;49.578;11.214;2023-04-03T01:17:54;5.95;;;3.60;;
23242;SDS011;11790;49.578;11.214;2023-04-03T01:28:12;5.45;;;3.95;;
23242;SDS011;11790;49.578;11.214;2023-04-03T01:33:13;5.35;;;3.67;;
23242;SDS011;11790;49.578;11.214;2023-04-03T01:38:13;5.70;;;3.77;;
23242;SDS011;11790;49.578;11.214;2023-04-03T01:43:13;4.63;;;3.45;;
23242;SDS011;11790;49.578;11.214;2023-04-03T01:48:14;7.10;;;3.60;;
23242;SDS011;11790;49.578;11.214;2023-04-03T01:53:15;5.30;;;3.55;;
23242;SDS011;11790;49.578;11.214;2023-04-03T01:58:15;7.35;;;3.90;;
23242;SDS011;11790;49.578;11.214;2023-04-03T02:03:16;4.22;;;3.30;;
23242;SDS011;11790;49.578;11.214;2023-04-03T02:08:16;7.10;;;3.47;;
23242;SDS011;11790;49.578;11.214;2023-04-03T02:13:17;5.38;;;3.55;;
23242;SDS011;11790;49.578;11.214;2023-04-03T02:18:18;6.70;;;3.58;;
23242;SDS011;11790;49.578;11.214;2023-04-03T02:23:18;7.22;;;3.80;;
23242;SDS011;11790;49.578;11.214;2023-04-03T02:28:18;7.28;;;4.18;;
23242;SDS011;11790;49.578;11.214;2023-04-03T02:33:18;10.45;;;4.40;;
23242;SDS011;11790;49.578;11.214;2023-04-03T02:38:18;8.35;;;3.97;;
23242;SDS011;11790;49.578;11.214;2023-04-03T02:43:19;10.00;;;4.22;;
23242;SDS011;11790;49.578;11.214;2023-04-03T02:48:19;6.97;;;4.50;;
23242;SDS011;11790;49.578;11.214;2023-04-03T02:53:19;10.00;;;4.10;;
23242;SDS011;11790;49.578;11.214;2023-04-03T02:58:19;8.25;;;4.45;;
23242;SDS011;11790;49.578;11.214;2023-04-03T03:03:20;9.38;;;4.60;;
23242;SDS011;11790;49.578;11.214;2023-04-03T03:08:20;9.50;;;4.20;;
23242;SDS011;11790;49.578;11.214;2023-04-03T03:13:20;7.97;;;4.32;;
23242;SDS011;11790;49.578;11.214;2023-04-03T03:18:20;10.93;;;4.85;;
23242;SDS011;11790;49.578;11.214;2023-04-03T03:23:21;7.75;;;5.03;;
23242;SDS011;11790;49.578;11.214;2023-04-03T03:28:22;9.77;;;4.57;;
23242;SDS011;11790;49.578;11.214;2023-04-03T03:33:22;7.47;;;4.60;;
23242;SDS011;11790;49.578;11.214;2023-04-03T03:38:22;8.63;;;4.93;;
23242;SDS011;11790;49.578;11.214;2023-04-03T03:43:22;9.65;;;5.47;;
23242;SDS011;11790;49.578;11.214;2023-04-03T03:48:23;10.05;;;5.10;;
23242;SDS011;11790;49.578;11.214;2023-04-03T03:53:23;8.25;;;5.05;;
23242;SDS011;11790;49.578;11.214;2023-04-03T03:58:23;9.90;;;5.32;;
23242;SDS011;11790;49.578;11.214;2023-04-03T04:03:23;11.25;;;5.57;;
23242;SDS011;11790;49.578;11.214;2023-04-03T04:08:24;9.68;;;5.05;;
23242;SDS011;11790;49.578;11.214;2023-04-03T04:13:24;11.48;;;5.63;;
23242;SDS011;11790;49.578;11.214;2023-04-03T04:18:24;12.48;;;6.13;;
23242;SDS011;11790;49.578;11.214;2023-04-03T04:23:25;9.60;;;5.57;;
23242;SDS011;11790;49.578;11.214;2023-04-03T04:28:25;10.70;;;5.80;;
23242;SDS011;11790;49.578;11.214;2023-04-03T04:33:25;10.48;;;6.10;;
23242;SDS011;11790;49.578;11.214;2023-04-03T04:38:26;12.00;;;6.15;;
23242;SDS011;11790;49.578;11.214;2023-04-03T04:43:26;9.57;;;6.10;;
23242;SDS011;11790;49.578;11.214;2023-04-03T04:48:26;11.10;;;5.93;;
23242;SDS011;11790;49.578;11.214;2023-04-03T04:53:26;12.80;;;5.80;;
23242;SDS011;11790;49.578;11.214;2023-04-03T04:58:27;11.27;;;5.88;;
23242;SDS011;11790;49.578;11.214;2023-04-03T05:03:27;12.43;;;5.68;;
23242;SDS011;11790;49.578;11.214;2023-04-03T05:08:27;11.02;;;5.65;;
23242;SDS011;11790;49.578;11.214;2023-04-03T05:13:27;10.55;;;5.57;;
23242;SDS011;11790;49.578;11.214;2023-04-03T05:18:28;8.77;;;5.17;;
23242;SDS011;11790;49.578;11.214;2023-04-03T05:23:28;15.68;;;5.70;;
23242;SDS011;11790;49.578;11.214;2023-04-03T05:28:28;10.93;;;5.55;;
23242;SDS011;11790;49.578;11.214;2023-04-03T05:33:28;12.52;;;5.00;;
23242;SDS011;11790;49.578;11.214;2023-04-03T05:38:29;8.70;;;4.63;;
23242;SDS011;11790;49.578;11.214;2023-04-03T05:43:29;9.63;;;4.68;;
23242;SDS011;11790;49.578;11.214;2023-04-03T05:48:30;9.27;;;5.00;;
23242;SDS011;11790;49.578;11.214;2023-04-03T05:53:31;9.50;;;5.32;;
23242;SDS011;11790;49.578;11.214;2023-04-03T05:58:31;9.88;;;4.35;;
23242;SDS011;11790;49.578;11.214;2023-04-03T06:03:32;11.40;;;4.97;;
23242;SDS011;11790;49.578;11.214;2023-04-03T06:08:32;9.57;;;4.63;;
23242;SDS011;11790;49.578;11.214;2023-04-03T06:13:33;11.02;;;4.63;;
23242;SDS011;11790;49.578;11.214;2023-04-03T06:18:33;10.93;;;4.60;;
23242;SDS011;11790;49.578;11.214;2023-04-03T06:23:33;10.23;;;4.65;;
23242;SDS011;11790;49.578;11.214;2023-04-03T06:28:33;9.48;;;4.80;;
23242;SDS011;11790;49.578;11.214;2023-04-03T06:33:34;8.10;;;4.85;;
23242;SDS011;11790;49.578;11.214;2023-04-03T06:38:34;9.50;;;5.15;;
23242;SDS011;11790;49.578;11.214;2023-04-03T06:43:34;10.02;;;4.72;;
23242;SDS011;11790;49.578;11.214;2023-04-03T06:48:35;10.27;;;4.60;;
23242;SDS011;11790;49.578;11.214;2023-04-03T06:53:36;9.75;;;4.90;;
23242;SDS011;11790;49.578;11.214;2023-04-03T06:58:36;9.02;;;5.10;;
23242;SDS011;11790;49.578;11.214;2023-04-03T07:03:36;8.27;;;4.80;;
23242;SDS011;11790;49.578;11.214;2023-04-03T07:08:37;8.82;;;4.80;;
23242;SDS011;11790;49.578;11.214;2023-04-03T07:13:37;8.25;;;4.50;;
23242;SDS011;11790;49.578;11.214;2023-04-03T07:18:37;6.75;;;4.28;;
23242;SDS011;11790;49.578;11.214;2023-04-03T07:23:38;7.70;;;4.15;;
23242;SDS011;11790;49.578;11.214;2023-04-03T07:28:38;7.90;;;3.95;;
23242;SDS011;11790;49.578;11.214;2023-04-03T07:33:41;11.65;;;4.28;;
23242;SDS011;11790;49.578;11.214;2023-04-03T07:38:41;6.23;;;3.93;;
23242;SDS011;11790;49.578;11.214;2023-04-03T07:43:41;7.47;;;3.65;;
23242;SDS011;11790;49.578;11.214;2023-04-03T07:48:42;6.53;;;3.97;;
23242;SDS011;11790;49.578;11.214;2023-04-03T07:53:42;11.40;;;3.97;;
23242;SDS011;11790;49.578;11.214;2023-04-03T07:58:42;8.90;;;3.47;;
23242;SDS011;11790;49.578;11.214;2023-04-03T08:03:43;5.68;;;2.85;;
23242;SDS011;11790;49.578;11.214;2023-04-03T08:08:43;4.30;;;2.65;;
23242;SDS011;11790;49.578;11.214;2023-04-03T08:13:43;6.80;;;2.92;;
23242;SDS011;11790;49.578;11.214;2023-04-03T08:18:43;7.03;;;2.30;;
23242;SDS011;11790;49.578;11.214;2023-04-03T08:23:44;4.60;;;2.80;;
23242;SDS011;11790;49.578;11.214;2023-04-03T08:28:44;6.43;;;2.90;;
23242;SDS011;11790;49.578;11.214;2023-04-03T08:33:45;5.23;;;2.53;;
23242;SDS011;11790;49.578;11.214;2023-04-03T08:38:45;6.05;;;2.92;;
23242;SDS011;11790;49.578;11.214;2023-04-03T08:44:01;5.20;;;2.50;;
23242;SDS011;11790;49.578;11.214;2023-04-03T08:49:02;5.22;;;2.33;;
23242;SDS011;11790;49.578;11.214;2023-04-03T08:54:04;4.20;;;2.58;;
23242;SDS011;11790;49.578;11.214;2023-04-03T08:59:05;5.18;;;2.72;;
23242;SDS011;11790;49.578;11.214;2023-04-03T09:04:13;6.63;;;2.33;;
23242;SDS011;11790;49.578;11.214;2023-04-03T09:14:21;3.67;;;2.08;;
23242;SDS011;11790;49.578;11.214;2023-04-03T09:19:28;5.82;;;2.10;;
23242;SDS011;11790;49.578;11.214;2023-04-03T09:24:32;8.00;;;2.38;;
23242;SDS011;11790;49.578;11.214;2023-04-03T09:29:33;4.60;;;2.05;;
23242;SDS011;11790;49.578;11.214;2023-04-03T09:34:35;4.93;;;2.17;;
23242;SDS011;11790;49.578;11.214;2023-04-03T09:39:49;4.90;;;2.00;;
23242;SDS011;11790;49.578;11.214;2023-04-03T09:44:55;3.72;;;2.15;;
23242;SDS011;11790;49.578;11.214;2023-04-03T09:55:18;2.88;;;2.00;;
23242;SDS011;11790;49.578;11.214;2023-04-03T10:00:23;4.72;;;2.03;;
23242;SDS011;11790;49.578;11.214;2023-04-03T10:10:29;4.38;;;2.10;;
23242;SDS011;11790;49.578;11.214;2023-04-03T10:15:29;3.33;;;2.20;;
23242;SDS011;11790;49.578;11.214;2023-04-03T10:20:35;4.78;;;2.13;;
23242;SDS011;11790;49.578;11.214;2023-04-03T10:30:42;3.25;;;1.95;;
23242;SDS011;11790;49.578;11.214;2023-04-03T10:35:56;4.00;;;2.03;;
23242;SDS011;11790;49.578;11.214;2023-04-03T10:46:22;2.80;;;1.50;;
23242;SDS011;11790;49.578;11.214;2023-04-03T10:51:26;4.22;;;1.92;;
23242;SDS011;11790;49.578;11.214;2023-04-03T10:56:30;3.22;;;2.00;;
23242;SDS011;11790;49.578;11.214;2023-04-03T11:01:33;4.20;;;1.95;;
23242;SDS011;11790;49.578;11.214;2023-04-03T11:06:36;4.50;;;2.25;;
23242;SDS011;11790;49.578;11.214;2023-04-03T11:11:38;5.05;;;2.20;;
23242;SDS011;11790;49.578;11.214;2023-04-03T11:16:40;3.10;;;2.22;;
23242;SDS011;11790;49.578;11.214;2023-04-03T11:21:46;3.72;;;2.08;;
23242;SDS011;11790;49.578;11.214;2023-04-03T11:26:48;3.97;;;2.10;;
23242;SDS011;11790;49.578;11.214;2023-04-03T11:32:12;3.45;;;1.90;;
23242;SDS011;11790;49.578;11.214;2023-04-03T11:37:22;4.55;;;1.80;;
23242;SDS011;11790;49.578;11.214;2023-04-03T11:42:34;3.17;;;1.60;;
23242;SDS011;11790;49.578;11.214;2023-04-03T11:47:46;5.53;;;2.05;;
23242;SDS011;11790;49.578;11.214;2023-04-03T12:02:59;4.68;;;2.10;;
23242;SDS011;11790;49.578;11.214;2023-04-03T12:13:18;3.85;;;1.60;;
23242;SDS011;11790;49.578;11.214;2023-04-03T12:28:57;5.88;;;2.38;;
23242;SDS011;11790;49.578;11.214;2023-04-03T12:34:05;6.78;;;2.35;;
23242;SDS011;11790;49.578;11.214;2023-04-03T12:44:35;2.95;;;1.70;;
23242;SDS011;11790;49.578;11.214;2023-04-03T12:49:41;3.70;;;1.95;;
23242;SDS011;11790;49.578;11.214;2023-04-03T12:54:42;4.10;;;1.75;;
23242;SDS011;11790;49.578;11.214;2023-04-03T12:59:45;3.65;;;1.95;;
23242;SDS011;11790;49.578;11.214;2023-04-03T13:04:47;3.75;;;1.90;;
23242;SDS011;11790;49.578;11.214;2023-04-03T13:09:54;3.03;;;1.90;;
23242;SDS011;11790;49.578;11.214;2023-04-03T13:14:56;3.83;;;2.00;;
23242;SDS011;11790;49.578;11.214;2023-04-03T13:20:12;4.93;;;1.88;;
23242;SDS011;11790;49.578;11.214;2023-04-03T13:25:13;3.25;;;1.90;;
23242;SDS011;11790;49.578;11.214;2023-04-03T13:30:20;3.05;;;1.70;;
23242;SDS011;11790;49.578;11.214;2023-04-03T13:35:27;4.40;;;1.80;;
23242;SDS011;11790;49.578;11.214;2023-04-03T13:40:28;4.00;;;1.80;;
23242;SDS011;11790;49.578;11.214;2023-04-03T13:45:29;3.45;;;1.70;;
23242;SDS011;11790;49.578;11.214;2023-04-03T13:50:29;3.63;;;1.65;;
23242;SDS011;11790;49.578;11.214;2023-04-03T13:55:32;3.33;;;1.73;;
23242;SDS011;11790;49.578;11.214;2023-04-03T14:00:34;4.15;;;1.50;;
23242;SDS011;11790;49.578;11.214;2023-04-03T14:05:35;4.03;;;1.70;;
23242;SDS011;11790;49.578;11.214;2023-04-03T14:10:35;4.40;;;1.80;;
23242;SDS011;11790;49.578;11.214;2023-04-03T14:15:36;4.20;;;1.90;;
23242;SDS011;11790;49.578;11.214;2023-04-03T14:20:36;3.70;;;1.50;;
23242;SDS011;11790;49.578;11.214;2023-04-03T14:25:36;4.00;;;1.77;;
23242;SDS011;11790;49.578;11.214;2023-04-03T14:30:37;3.35;;;1.90;;
23242;SDS011;11790;49.578;11.214;2023-04-03T14:35:38;4.28;;;1.70;;
23242;SDS011;11790;49.578;11.214;2023-04-03T14:40:38;2.70;;;1.40;;
23242;SDS011;11790;49.578;11.214;2023-04-03T14:45:38;3.65;;;1.90;;
23242;SDS011;11790;49.578;11.214;2023-04-03T14:50:38;2.90;;;1.80;;
23242;SDS011;11790;49.578;11.214;2023-04-03T14:55:38;2.88;;;2.00;;
23242;SDS011;11790;49.578;11.214;2023-04-03T15:00:39;4.53;;;2.10;;
23242;SDS011;11790;49.578;11.214;2023-04-03T15:05:39;10.82;;;3.45;;
23242;SDS011;11790;49.578;11.214;2023-04-03T15:10:39;4.50;;;2.03;;
23242;SDS011;11790;49.578;11.214;2023-04-03T15:15:39;4.43;;;2.05;;
23242;SDS011;11790;49.578;11.214;2023-04-03T15:20:39;10.30;;;3.40;;
23242;SDS011;11790;49.578;11.214;2023-04-03T15:25:40;4.43;;;2.33;;
23242;SDS011;11790;49.578;11.214;2023-04-03T15:30:40;3.22;;;1.70;;
23242;SDS011;11790;49.578;11.214;2023-04-03T15:35:40;4.75;;;2.30;;
23242;SDS011;11790;49.578;11.214;2023-04-03T15:40:41;2.43;;;1.60;;
23242;SDS011;11790;49.578;11.214;2023-04-03T15:45:42;4.07;;;1.85;;
23242;SDS011;11790;49.578;11.214;2023-04-03T15:50:43;3.95;;;1.92;;
23242;SDS011;11790;49.578;11.214;2023-04-03T15:55:43;4.70;;;2.15;;
23242;SDS011;11790;49.578;11.214;2023-04-03T16:00:43;4.20;;;2.17;;
23242;SDS011;11790;49.578;11.214;2023-04-03T16:05:44;3.50;;;1.67;;
23242;SDS011;11790;49.578;11.214;2023-04-03T16:10:45;3.83;;;1.77;;
23242;SDS011;11790;49.578;11.214;2023-04-03T16:15:46;2.70;;;1.75;;
23242;SDS011;11790;49.578;11.214;2023-04-03T16:20:46;5.07;;;1.70;;
23242;SDS011;11790;49.578;11.214;2023-04-03T16:25:47;6.13;;;2.20;;
23242;SDS011;11790;49.578;11.214;2023-04-03T16:30:47;2.75;;;1.80;;
23242;SDS011;11790;49.578;11.214;2023-04-03T16:35:49;1.75;;;1.33;;
23242;SDS011;11790;49.578;11.214;2023-04-03T16:40:49;3.08;;;1.40;;
23242;SDS011;11790;49.578;11.214;2023-04-03T16:45:49;3.42;;;1.50;;
23242;SDS011;11790;49.578;11.214;2023-04-03T16:50:50;4.03;;;1.77;;
23242;SDS011;11790;49.578;11.214;2023-04-03T16:55:53;3.63;;;1.63;;
23242;SDS011;11790;49.578;11.214;2023-04-03T17:00:53;2.92;;;1.60;;
23242;SDS011;11790;49.578;11.214;2023-04-03T17:05:54;4.50;;;2.28;;
23242;SDS011;11790;49.578;11.214;2023-04-03T17:10:55;4.03;;;1.50;;
23242;SDS011;11790;49.578;11.214;2023-04-03T17:15:55;3.22;;;1.73;;
23242;SDS011;11790;49.578;11.214;2023-04-03T17:20:55;4.03;;;1.67;;
23242;SDS011;11790;49.578;11.214;2023-04-03T17:25:56;2.83;;;1.42;;
23242;SDS011;11790;49.578;11.214;2023-04-03T17:30:57;2.97;;;1.30;;
23242;SDS011;11790;49.578;11.214;2023-04-03T17:35:58;3.90;;;1.55;;
23242;SDS011;11790;49.578;11.214;2023-04-03T17:41:01;4.90;;;1.63;;
23242;SDS011;11790;49.578;11.214;2023-04-03T17:46:03;3.05;;;1.70;;
23242;SDS011;11790;49.578;11.214;2023-04-03T17:51:07;8.02;;;3.03;;
23242;SDS011;11790;49.578;11.214;2023-04-03T17:56:08;7.72;;;2.97;;
23242;SDS011;11790;49.578;11.214;2023-04-03T18:01:19;4.38;;;2.03;;
23242;SDS011;11790;49.578;11.214;2023-04-03T18:06:20;5.18;;;2.80;;
23242;SDS011;11790;49.578;11.214;2023-04-03T18:11:22;4.40;;;2.35;;
23242;SDS011;11790;49.578;11.214;2023-04-03T18:16:22;3.90;;;1.88;;
23242;SDS011;11790;49.578;11.214;2023-04-03T18:21:23;4.75;;;1.90;;
23242;SDS011;11790;49.578;11.214;2023-04-03T18:26:26;3.92;;;1.80;;
23242;SDS011;11790;49.578;11.214;2023-04-03T18:31:27;6.32;;;3.15;;
23242;SDS011;11790;49.578;11.214;2023-04-03T18:36:29;169.73;;;42.05;;
23242;SDS011;11790;49.578;11.214;2023-04-03T18:41:30;115.78;;;37.05;;
23242;SDS011;11790;49.578;11.214;2023-04-03T18:46:31;50.22;;;16.67;;
23242;SDS011;11790;49.578;11.214;2023-04-03T18:51:32;33.75;;;12.52;;
23242;SDS011;11790;49.578;11.214;2023-04-03T18:56:32;20.00;;;7.95;;
23242;SDS011;11790;49.578;11.214;2023-04-03T19:01:33;19.80;;;7.20;;
23242;SDS011;11790;49.578;11.214;2023-04-03T19:06:34;35.28;;;12.32;;
23242;SDS011;11790;49.578;11.214;2023-04-03T19:11:34;12.82;;;4.82;;
23242;SDS011;11790;49.578;11.214;2023-04-03T19:16:35;4.30;;;2.40;;
23242;SDS011;11790;49.578;11.214;2023-04-03T19:21:35;6.38;;;2.65;;
23242;SDS011;11790;49.578;11.214;2023-04-03T19:26:40;6.55;;;2.78;;
23242;SDS011;11790;49.578;11.214;2023-04-03T19:31:40;4.40;;;2.38;;
23242;SDS011;11790;49.578;11.214;2023-04-03T19:36:41;5.63;;;2.63;;
23242;SDS011;11790;49.578;11.214;2023-04-03T19:41:42;5.65;;;2.70;;
23242;SDS011;11790;49.578;11.214;2023-04-03T19:46:44;6.78;;;4.20;;
23242;SDS011;11790;49.578;11.214;2023-04-03T19:51:44;4.83;;;3.20;;
23242;SDS011;11790;49.578;11.214;2023-04-03T19:56:44;6.78;;;3.03;;
23242;SDS011;11790;49.578;11.214;2023-04-03T20:01:45;7.97;;;3.50;;
23242;SDS011;11790;49.578;11.214;2023-04-03T20:06:45;9.43;;;3.83;;
23242;SDS011;11790;49.578;11.214;2023-04-03T20:11:45;21.63;;;9.10;;
23242;SDS011;11790;49.578;11.214;2023-04-03T20:16:46;10.55;;;3.85;;
23242;SDS011;11790;49.578;11.214;2023-04-03T20:21:46;8.15;;;3.88;;
23242;SDS011;11790;49.578;11.214;2023-04-03T20:26:46;11.27;;;4.70;;
23242;SDS011;11790;49.578;11.214;2023-04-03T20:31:47;5.47;;;3.05;;
23242;SDS011;11790;49.578;11.214;2023-04-03T20:36:47;10.88;;;3.53;;
23242;SDS011;11790;49.578;11.214;2023-04-03T20:41:47;13.07;;;6.13;;
23242;SDS011;11790;49.578;11.214;2023-04-03T20:46:48;8.60;;;3.28;;
23242;SDS011;11790;49.578;11.214;2023-04-03T20:51:48;6.88;;;3.15;;
23242;SDS011;11790;49.578;11.214;2023-04-03T20:56:50;6.00;;;2.97;;
23242;SDS011;11790;49.578;11.214;2023-04-03T21:01:50;4.70;;;2.33;;
23242;SDS011;11790;49.578;11.214;2023-04-03T21:22:29;6.53;;;2.55;;
23242;SDS011;11790;49.578;11.214;2023-04-03T21:27:29;8.70;;;4.00;;
23242;SDS011;11790;49.578;11.214;2023-04-03T21:32:29;13.30;;;5.50;;
23242;SDS011;11790;49.578;11.214;2023-04-03T21:37:31;7.53;;;3.33;;
23242;SDS011;11790;49.578;11.214;2023-04-03T21:42:32;9.05;;;2.85;;
23242;SDS011;11790;49.578;11.214;2023-04-03T21:47:32;4.88;;;2.45;;
23242;SDS011;11790;49.578;11.214;2023-04-03T21:52:34;8.45;;;3.10;;
23242;SDS011;11790;49.578;11.214;2023-04-03T21:57:35;7.57;;;2.80;;
23242;SDS011;11790;49.578;11.214;2023-04-03T22:02:38;5.75;;;2.60;;
23242;SDS011;11790;49.578;11.214;2023-04-03T22:07:42;5.15;;;2.75;;
23242;SDS011;11790;49.578;11.214;2023-04-03T22:12:42;4.50;;;3.00;;
23242;SDS011;11790;49.578;11.214;2023-04-03T22:17:42;11.33;;;5.30;;
23242;SDS011;11790;49.578;11.214;2023-04-03T22:22:43;7.80;;;3.70;;
23242;SDS011;11790;49.578;11.214;2023-04-03T22:27:43;7.05;;;3.72;;
23242;SDS011;11790;49.578;11.214;2023-04-03T22:32:43;8.77;;;2.90;;
23242;SDS011;11790;49.578;11.214;2023-04-03T22:37:44;6.18;;;2.60;;
23242;SDS011;11790;49.578;11.214;2023-04-03T22:42:45;6.57;;;2.60;;
23242;SDS011;11790;49.578;11.214;2023-04-03T22:47:46;6.68;;;3.00;;
23242;SDS011;11790;49.578;11.214;2023-04-03T22:52:46;4.77;;;2.50;;
23242;SDS011;11790;49.578;11.214;2023-04-03T22:57:47;5.22;;;2.65;;
23242;SDS011;11790;49.578;11.214;2023-04-03T23:02:47;6.65;;;2.55;;
23242;SDS011;11790;49.578;11.214;2023-04-03T23:07:47;6.82;;;2.67;;
23242;SDS011;11790;49.578;11.214;2023-04-03T23:12:47;6.47;;;2.30;;
23242;SDS011;11790;49.578;11.214;2023-04-03T23:17:48;4.68;;;2.30;;
23242;SDS011;11790;49.578;11.214;2023-04-03T23:22:49;5.95;;;2.45;;
23242;SDS011;11790;49.578;11.214;2023-04-03T23:27:49;5.50;;;2.42;;
23242;SDS011;11790;49.578;11.214;2023-04-03T23:32:51;5.53;;;2.38;;
23242;SDS011;11790;49.578;11.214;2023-04-03T23:37:51;5.63;;;2.40;;
23242;SDS011;11790;49.578;11.214;2023-04-03T23:42:51;6.68;;;2.47;;
23242;SDS011;11790;49.578;11.214;2023-04-03T23:47:51;7.13;;;2.47;;
23242;SDS011;11790;49.578;11.214;2023-04-03T23:52:52;4.65;;;2.45;;
23242;SDS011;11790;49.578;11.214;2023-04-03T23:57:52;4.93;;;2.30;;
